createdAt,value
2023-09-23T00:00:50.971Z,4.85
2023-09-23T00:03:18.199Z,4.80
2023-09-23T00:05:45.837Z,5.27
2023-09-23T00:08:13.677Z,5.05
2023-09-23T00:10:40.594Z,4.88
2023-09-23T00:13:07.452Z,4.57
2023-09-23T00:15:36.197Z,4.72
2023-09-23T00:18:03.546Z,4.72
2023-09-23T00:20:30.554Z,4.68
2023-09-23T00:22:57.650Z,5.20
2023-09-23T00:25:25.256Z,4.77
2023-09-23T00:27:55.594Z,4.80
2023-09-23T00:30:27.586Z,4.50
2023-09-23T00:32:54.713Z,4.90
2023-09-23T00:35:21.590Z,4.75
2023-09-23T00:37:51.442Z,4.70
2023-09-23T00:40:24.947Z,4.00
2023-09-23T00:42:51.973Z,3.95
2023-09-23T00:45:20.204Z,4.22
2023-09-23T00:47:47.707Z,3.90
2023-09-23T00:50:19.660Z,4.00
2023-09-23T00:52:52.478Z,4.10
2023-09-23T00:55:26.930Z,4.80
2023-09-23T00:57:54.751Z,3.90
2023-09-23T01:00:26.124Z,2.97
2023-09-23T01:02:56.954Z,3.03
2023-09-23T01:05:28.158Z,2.22
2023-09-23T01:08:03.227Z,2.83
2023-09-23T01:10:30.058Z,2.90
2023-09-23T01:12:58.109Z,3.17
2023-09-23T01:17:55.695Z,3.30
2023-09-23T01:20:22.843Z,3.13
2023-09-23T01:22:49.924Z,3.70
2023-09-23T01:25:20.333Z,4.00
2023-09-23T01:27:47.152Z,4.03
2023-09-23T01:30:14.261Z,3.20
2023-09-23T01:32:51.023Z,3.40
2023-09-23T01:35:18.919Z,3.30
2023-09-23T01:37:46.763Z,3.63
2023-09-23T01:40:19.611Z,3.10
2023-09-23T01:42:50.142Z,3.17
2023-09-23T01:45:18.011Z,3.05
2023-09-23T01:47:45.525Z,3.38
2023-09-23T01:50:14.342Z,3.67
2023-09-23T01:52:42.030Z,3.40
2023-09-23T01:55:11.789Z,2.63
2023-09-23T01:57:42.087Z,3.00
2023-09-23T02:00:12.137Z,3.10
2023-09-23T02:02:42.095Z,2.85
2023-09-23T02:05:10.386Z,1.90
2023-09-23T02:07:37.418Z,2.17
2023-09-23T02:10:04.460Z,1.35
2023-09-23T02:12:33.272Z,1.63
2023-09-23T02:15:00.203Z,1.60
2023-09-23T02:17:27.166Z,1.42
2023-09-23T02:19:54.994Z,1.75
2023-09-23T02:22:21.932Z,2.10
2023-09-23T02:24:48.735Z,2.70
2023-09-23T02:27:15.655Z,2.88
2023-09-23T02:29:43.879Z,3.30
2023-09-23T02:32:10.683Z,3.25
2023-09-23T02:34:38.018Z,4.63
2023-09-23T02:37:05.796Z,5.10
2023-09-23T02:39:32.685Z,4.63
2023-09-23T02:42:01.058Z,5.18
2023-09-23T02:44:31.094Z,5.68
2023-09-23T02:46:58.277Z,5.93
2023-09-23T02:49:25.408Z,5.35
2023-09-23T02:51:52.196Z,5.47
2023-09-23T02:54:19.102Z,5.57
2023-09-23T02:56:49.929Z,5.00
2023-09-23T02:59:22.610Z,5.03
2023-09-23T03:01:54.710Z,4.97
2023-09-23T03:04:25.167Z,5.03
2023-09-23T03:06:56.149Z,5.28
2023-09-23T03:09:25.380Z,5.15
2023-09-23T03:11:58.896Z,5.40
2023-09-23T03:14:43.777Z,5.18
2023-09-23T03:17:14.035Z,4.93
2023-09-23T03:19:41.082Z,5.45
2023-09-23T03:22:09.080Z,5.00
2023-09-23T03:24:36.201Z,4.95
2023-09-23T03:27:03.285Z,4.45
2023-09-23T03:29:32.218Z,4.50
2023-09-23T03:32:00.681Z,3.72
2023-09-23T03:34:27.874Z,3.57
2023-09-23T03:36:55.881Z,3.90
2023-09-23T03:39:23.559Z,3.55
2023-09-23T03:41:50.399Z,3.38
2023-09-23T03:44:17.758Z,2.97
2023-09-23T03:46:47.258Z,2.90
2023-09-23T03:49:14.261Z,2.58
2023-09-23T03:51:41.266Z,2.60
2023-09-23T03:54:08.316Z,2.30
2023-09-23T03:56:35.600Z,1.90
2023-09-23T03:59:07.303Z,2.10
2023-09-23T04:01:34.934Z,1.90
2023-09-23T04:04:02.864Z,1.67
2023-09-23T04:06:31.074Z,1.88
2023-09-23T04:11:27.558Z,1.70
2023-09-23T04:13:54.990Z,1.60
2023-09-23T04:16:22.877Z,1.60
2023-09-23T04:18:52.721Z,1.40
2023-09-23T04:21:21.859Z,1.40
2023-09-23T04:23:53.415Z,1.30
2023-09-23T04:26:22.969Z,1.15
2023-09-23T04:28:53.209Z,1.45
2023-09-23T04:31:20.882Z,1.40
2023-09-23T04:33:48.646Z,1.20
2023-09-23T04:36:15.976Z,1.10
2023-09-23T04:38:44.943Z,0.90
2023-09-23T04:41:12.129Z,1.13
2023-09-23T04:43:42.433Z,0.88
2023-09-23T04:46:15.883Z,1.10
2023-09-23T04:48:44.680Z,1.00
2023-09-23T04:51:11.692Z,1.05
2023-09-23T04:53:38.480Z,0.90
2023-09-23T04:56:17.871Z,0.90
2023-09-23T04:58:45.721Z,1.00
2023-09-23T05:01:16.964Z,0.90
2023-09-23T05:03:43.930Z,1.00
2023-09-23T05:06:11.893Z,0.88
2023-09-23T05:08:38.737Z,0.90
2023-09-23T05:11:07.807Z,1.02
2023-09-23T05:13:35.108Z,1.10
2023-09-23T05:16:01.982Z,1.17
2023-09-23T05:18:30.323Z,1.13
2023-09-23T05:20:57.236Z,0.80
2023-09-23T05:23:24.716Z,1.02
2023-09-23T05:25:51.667Z,1.10
2023-09-23T05:28:19.554Z,0.90
2023-09-23T05:30:47.143Z,0.70
2023-09-23T05:33:17.032Z,0.75
2023-09-23T05:35:43.854Z,0.80
2023-09-23T05:38:10.809Z,3.33
2023-09-23T05:40:38.054Z,2.03
2023-09-23T05:43:05.336Z,0.98
2023-09-23T05:45:32.544Z,0.90
2023-09-23T05:48:00.163Z,0.90
2023-09-23T05:50:27.410Z,0.95
2023-09-23T05:52:54.550Z,0.80
2023-09-23T05:55:21.766Z,0.95
2023-09-23T05:57:48.948Z,1.38
2023-09-23T06:00:17.018Z,1.05
2023-09-23T06:05:14.969Z,0.90
2023-09-23T06:07:44.918Z,0.95
2023-09-23T06:10:12.450Z,1.00
2023-09-23T06:12:39.981Z,0.80
2023-09-23T06:15:07.589Z,1.00
2023-09-23T06:17:36.601Z,0.80
2023-09-23T06:20:04.339Z,0.88
2023-09-23T06:22:34.734Z,0.75
2023-09-23T06:25:02.740Z,0.65
2023-09-23T06:27:29.959Z,0.63
2023-09-23T06:29:56.775Z,0.98
2023-09-23T06:32:23.747Z,0.63
2023-09-23T06:34:50.630Z,0.82
2023-09-23T06:37:17.465Z,0.63
2023-09-23T06:39:44.257Z,0.80
2023-09-23T06:42:11.094Z,0.70
2023-09-23T06:44:38.073Z,0.63
2023-09-23T06:47:05.417Z,0.57
2023-09-23T06:49:32.294Z,0.60
2023-09-23T06:51:59.069Z,0.75
2023-09-23T06:54:25.972Z,0.70
2023-09-23T06:56:56.146Z,0.70
2023-09-23T06:59:23.187Z,0.40
2023-09-23T07:01:50.191Z,0.68
2023-09-23T07:04:17.174Z,0.60
2023-09-23T07:06:44.181Z,0.80
2023-09-23T07:09:11.073Z,0.60
2023-09-23T07:11:38.866Z,1.25
2023-09-23T07:14:07.273Z,0.50
2023-09-23T07:16:37.452Z,0.77
2023-09-23T07:19:04.463Z,0.50
2023-09-23T07:21:31.324Z,0.50
2023-09-23T07:23:59.166Z,0.95
2023-09-23T07:26:26.096Z,0.70
2023-09-23T07:28:53.234Z,0.47
2023-09-23T07:31:20.926Z,0.60
2023-09-23T07:33:48.010Z,0.50
2023-09-23T07:36:15.951Z,0.57
2023-09-23T07:38:42.909Z,0.55
2023-09-23T07:41:09.818Z,0.60
2023-09-23T07:43:39.654Z,0.80
2023-09-23T07:46:06.808Z,1.38
2023-09-23T07:48:33.685Z,0.60
2023-09-23T07:51:00.560Z,0.55
2023-09-23T07:53:27.406Z,0.47
2023-09-23T07:55:54.276Z,0.50
2023-09-23T07:58:21.131Z,0.50
2023-09-23T08:00:47.911Z,0.80
2023-09-23T08:03:14.957Z,0.60
2023-09-23T08:05:41.835Z,0.60
2023-09-23T08:08:08.690Z,0.43
2023-09-23T08:10:35.468Z,0.75
2023-09-23T08:13:03.547Z,0.40
2023-09-23T08:17:57.460Z,0.50
2023-09-23T08:20:25.246Z,0.63
2023-09-23T08:22:52.599Z,0.60
2023-09-23T08:25:19.446Z,0.70
2023-09-23T08:27:46.978Z,0.73
2023-09-23T08:30:16.412Z,0.52
2023-09-23T08:32:43.467Z,0.50
2023-09-23T08:35:10.427Z,0.60
2023-09-23T08:37:37.572Z,0.60
2023-09-23T08:40:14.166Z,0.53
2023-09-23T08:42:41.211Z,0.60
2023-09-23T08:45:10.132Z,0.50
2023-09-23T08:47:40.874Z,0.68
2023-09-23T08:50:11.901Z,0.70
2023-09-23T08:52:39.019Z,0.73
2023-09-23T08:55:08.746Z,1.02
2023-09-23T08:57:35.933Z,0.50
2023-09-23T09:00:08.150Z,0.70
2023-09-23T09:02:35.565Z,0.60
2023-09-23T09:05:02.592Z,0.50
2023-09-23T09:07:37.320Z,0.55
2023-09-23T09:10:05.546Z,0.60
2023-09-23T09:15:00.080Z,0.50
2023-09-23T09:17:27.120Z,0.60
2023-09-23T09:19:54.048Z,0.90
2023-09-23T09:22:20.936Z,0.60
2023-09-23T09:24:47.958Z,0.55
2023-09-23T09:27:15.354Z,0.90
2023-09-23T09:29:43.414Z,0.80
2023-09-23T09:32:11.964Z,0.90
2023-09-23T09:34:48.639Z,0.70
2023-09-23T09:37:16.158Z,1.10
2023-09-23T09:39:47.448Z,1.08
2023-09-23T09:42:24.233Z,1.05
2023-09-23T09:44:55.117Z,0.90
2023-09-23T09:47:23.303Z,0.80
2023-09-23T09:49:53.245Z,1.08
2023-09-23T09:52:29.765Z,0.80
2023-09-23T09:55:00.166Z,1.10
2023-09-23T09:57:30.368Z,0.90
2023-09-23T10:00:01.790Z,1.00
2023-09-23T10:02:39.263Z,0.80
2023-09-23T10:05:07.225Z,0.90
2023-09-23T10:07:56.286Z,1.10
2023-09-23T10:10:35.213Z,0.90
2023-09-23T10:13:30.623Z,0.90
2023-09-23T10:16:13.197Z,0.80
2023-09-23T10:18:42.365Z,0.90
2023-09-23T10:21:21.947Z,0.80
2023-09-23T10:23:52.738Z,0.93
2023-09-23T10:26:21.404Z,0.80
2023-09-23T10:28:59.720Z,0.70
2023-09-23T10:31:28.512Z,0.77
2023-09-23T10:33:55.642Z,0.70
2023-09-23T10:36:23.685Z,0.80
2023-09-23T10:41:19.153Z,0.90
2023-09-23T10:43:56.954Z,0.80
2023-09-23T10:46:24.054Z,1.00
2023-09-23T10:48:51.372Z,0.57
2023-09-23T10:51:18.272Z,0.50
2023-09-23T10:53:45.119Z,0.73
2023-09-23T10:56:12.162Z,0.50
2023-09-23T10:58:39.923Z,0.73
2023-09-23T11:01:08.025Z,0.55
2023-09-23T11:06:11.023Z,0.47
2023-09-23T11:08:38.700Z,0.68
2023-09-23T11:11:05.799Z,0.77
2023-09-23T11:13:34.755Z,0.80
2023-09-23T11:16:11.800Z,0.55
2023-09-23T11:18:39.311Z,0.70
2023-09-23T11:21:06.702Z,0.70
2023-09-23T11:23:35.019Z,0.80
2023-09-23T11:26:02.331Z,0.68
2023-09-23T11:28:29.501Z,0.80
2023-09-23T11:30:58.010Z,0.60
2023-09-23T11:33:27.749Z,0.60
2023-09-23T11:35:55.863Z,0.50
2023-09-23T11:38:22.845Z,0.85
2023-09-23T11:40:49.877Z,0.75
2023-09-23T11:43:17.014Z,0.70
2023-09-23T11:45:44.688Z,0.57
2023-09-23T11:48:11.665Z,0.70
2023-09-23T11:50:39.527Z,0.65
2023-09-23T11:53:06.615Z,0.50
2023-09-23T11:55:34.518Z,0.50
2023-09-23T11:58:01.929Z,0.43
2023-09-23T12:00:30.055Z,0.40
2023-09-23T12:02:57.711Z,0.35
2023-09-23T12:05:30.773Z,0.50
2023-09-23T12:08:01.852Z,0.40
2023-09-23T12:10:30.798Z,0.50
2023-09-23T12:13:04.368Z,0.52
2023-09-23T12:15:32.668Z,0.40
2023-09-23T12:20:27.960Z,0.60
2023-09-23T12:25:21.739Z,0.70
2023-09-23T12:27:48.703Z,0.65
2023-09-23T12:30:18.959Z,0.50
2023-09-23T12:32:46.680Z,0.50
2023-09-23T12:35:13.915Z,0.70
2023-09-23T12:37:41.482Z,0.50
2023-09-23T12:40:08.977Z,0.60
2023-09-23T12:42:36.010Z,0.50
2023-09-23T12:45:06.129Z,0.40
2023-09-23T12:47:48.941Z,0.60
2023-09-23T12:50:20.462Z,0.50
2023-09-23T12:52:47.774Z,0.60
2023-09-23T12:55:14.674Z,0.55
2023-09-23T12:57:41.461Z,0.60
2023-09-23T13:00:09.065Z,0.55
2023-09-23T13:02:36.029Z,0.80
2023-09-23T13:05:03.969Z,0.73
2023-09-23T13:07:31.043Z,0.80
2023-09-23T13:09:57.834Z,0.70
2023-09-23T13:12:24.637Z,0.45
2023-09-23T13:14:51.525Z,0.50
2023-09-23T13:17:18.674Z,0.55
2023-09-23T13:19:45.779Z,0.70
2023-09-23T13:22:12.702Z,0.50
2023-09-23T13:24:39.574Z,0.40
2023-09-23T13:27:07.139Z,0.65
2023-09-23T13:29:34.221Z,0.60
2023-09-23T13:32:01.210Z,0.60
2023-09-23T13:34:28.015Z,0.40
2023-09-23T13:36:55.020Z,0.60
2023-09-23T13:39:22.263Z,0.50
2023-09-23T13:41:49.623Z,0.57
2023-09-23T13:44:17.469Z,0.73
2023-09-23T13:46:44.414Z,0.40
2023-09-23T13:49:11.745Z,0.70
2023-09-23T13:51:38.658Z,0.60
2023-09-23T13:54:05.707Z,0.60
2023-09-23T13:56:32.879Z,0.53
2023-09-23T13:58:59.798Z,0.40
2023-09-23T14:01:26.795Z,0.63
2023-09-23T14:03:53.834Z,0.50
2023-09-23T14:06:20.759Z,0.50
2023-09-23T14:08:47.898Z,1.50
2023-09-23T14:11:16.440Z,0.77
2023-09-23T14:13:45.427Z,0.77
2023-09-23T14:16:12.505Z,0.80
2023-09-23T14:18:39.382Z,0.60
2023-09-23T14:21:06.273Z,0.60
2023-09-23T14:23:33.342Z,0.60
2023-09-23T14:26:00.327Z,0.93
2023-09-23T14:28:27.194Z,0.73
2023-09-23T14:30:54.184Z,0.70
2023-09-23T14:33:21.174Z,0.70
2023-09-23T14:35:48.012Z,0.85
2023-09-23T14:38:14.992Z,1.55
2023-09-23T14:40:41.880Z,0.80
2023-09-23T14:43:08.653Z,1.35
2023-09-23T14:45:35.669Z,1.10
2023-09-23T14:48:03.030Z,0.85
2023-09-23T14:50:30.112Z,0.70
2023-09-23T14:52:57.142Z,0.70
2023-09-23T14:55:24.175Z,0.57
2023-09-23T14:57:50.994Z,4.25
2023-09-23T15:00:18.081Z,2.47
2023-09-23T15:02:45.536Z,2.88
2023-09-23T15:05:12.708Z,2.03
2023-09-23T15:07:40.089Z,2.10
2023-09-23T15:10:08.110Z,2.10
2023-09-23T15:15:02.275Z,2.08
2023-09-23T15:17:29.660Z,2.40
2023-09-23T15:19:56.759Z,1.30
2023-09-23T15:22:23.963Z,1.02
2023-09-23T15:24:50.765Z,0.80
2023-09-23T15:27:17.674Z,0.95
2023-09-23T15:29:46.260Z,1.05
2023-09-23T15:32:13.319Z,0.98
2023-09-23T15:34:40.168Z,1.20
2023-09-23T15:37:06.947Z,1.10
2023-09-23T15:39:34.324Z,0.88
2023-09-23T15:42:01.243Z,1.20
2023-09-23T15:44:28.244Z,0.77
2023-09-23T15:46:55.941Z,1.10
2023-09-23T15:49:23.366Z,0.60
2023-09-23T15:51:50.161Z,1.35
2023-09-23T15:54:16.945Z,0.88
2023-09-23T15:56:43.986Z,1.40
2023-09-23T15:59:11.610Z,1.38
2023-09-23T16:01:39.462Z,1.40
2023-09-23T16:04:06.669Z,1.40
2023-09-23T16:06:33.569Z,1.30
2023-09-23T16:09:00.358Z,1.13
2023-09-23T16:11:27.204Z,1.23
2023-09-23T16:13:54.180Z,1.13
2023-09-23T16:16:21.038Z,1.20
2023-09-23T16:18:48.147Z,1.15
2023-09-23T16:21:15.061Z,1.70
2023-09-23T16:23:42.137Z,1.40
2023-09-23T16:26:08.971Z,1.52
2023-09-23T16:28:35.773Z,1.50
2023-09-23T16:31:02.612Z,1.50
2023-09-23T16:33:29.473Z,1.60
2023-09-23T16:35:56.428Z,1.80
2023-09-23T16:38:23.376Z,1.60
2023-09-23T16:40:51.002Z,1.42
2023-09-23T16:43:17.956Z,1.60
2023-09-23T16:45:46.697Z,1.20
2023-09-23T16:48:13.934Z,1.42
2023-09-23T16:50:40.860Z,1.40
2023-09-23T16:53:13.494Z,1.67
2023-09-23T16:55:40.384Z,1.35
2023-09-23T16:58:07.421Z,1.80
2023-09-23T17:00:34.214Z,1.77
2023-09-23T17:03:02.182Z,1.60
2023-09-23T17:07:56.291Z,1.70
2023-09-23T17:10:23.091Z,2.95
2023-09-23T17:12:50.024Z,2.85
2023-09-23T17:15:17.034Z,2.33
2023-09-23T17:17:43.986Z,2.05
2023-09-23T17:20:11.477Z,2.30
2023-09-23T17:22:38.812Z,2.20
2023-09-23T17:25:07.639Z,2.20
2023-09-23T17:27:35.615Z,2.58
2023-09-23T17:30:05.816Z,12.75
2023-09-23T17:32:33.161Z,6.03
2023-09-23T17:35:00.250Z,16.80
2023-09-23T17:37:27.077Z,10.40
2023-09-23T17:39:54.364Z,13.23
2023-09-23T17:42:22.156Z,14.80
2023-09-23T17:44:49.240Z,12.60
2023-09-23T17:47:16.121Z,8.82
2023-09-23T17:49:42.948Z,7.63
2023-09-23T17:52:09.896Z,7.43
2023-09-23T17:54:36.911Z,7.45
2023-09-23T17:57:03.839Z,4.25
2023-09-23T17:59:30.807Z,4.13
2023-09-23T18:01:58.667Z,3.72
2023-09-23T18:04:25.613Z,3.58
2023-09-23T18:06:52.577Z,3.85
2023-09-23T18:09:19.378Z,7.20
2023-09-23T18:11:46.195Z,8.23
2023-09-23T18:14:13.292Z,7.55
2023-09-23T18:16:40.553Z,6.50
2023-09-23T18:19:07.446Z,5.23
2023-09-23T18:21:34.375Z,4.97
2023-09-23T18:24:01.318Z,5.65
2023-09-23T18:26:28.444Z,5.00
2023-09-23T18:28:55.499Z,5.00
2023-09-23T18:31:22.468Z,4.75
2023-09-23T18:33:50.206Z,4.90
2023-09-23T18:36:17.417Z,4.90
2023-09-23T18:38:46.519Z,4.65
2023-09-23T18:41:13.512Z,5.28
2023-09-23T18:43:40.400Z,19.23
2023-09-23T18:46:07.507Z,10.73
2023-09-23T18:48:34.579Z,6.43
2023-09-23T18:51:01.494Z,17.42
2023-09-23T18:53:28.656Z,14.32
2023-09-23T18:55:55.846Z,5.72
2023-09-23T18:58:22.659Z,6.32
2023-09-23T19:00:49.549Z,4.45
2023-09-23T19:03:18.505Z,3.33
2023-09-23T19:05:47.314Z,7.07
2023-09-23T19:08:14.608Z,7.40
2023-09-23T19:10:41.583Z,8.73
2023-09-23T19:13:08.701Z,7.45
2023-09-23T19:15:35.567Z,4.80
2023-09-23T19:18:02.769Z,4.18
2023-09-23T19:20:29.986Z,4.50
2023-09-23T19:22:56.870Z,4.07
2023-09-23T19:25:23.894Z,3.28
2023-09-23T19:27:50.685Z,2.88
2023-09-23T19:30:18.069Z,2.97
2023-09-23T19:32:45.009Z,2.90
2023-09-23T19:35:14.643Z,3.10
2023-09-23T19:37:41.454Z,3.10
2023-09-23T19:40:10.074Z,3.03
2023-09-23T19:42:37.977Z,2.88
2023-09-23T19:45:05.721Z,3.28
2023-09-23T19:47:33.257Z,3.92
2023-09-23T19:50:01.123Z,3.75
2023-09-23T19:52:30.243Z,3.90
2023-09-23T19:54:57.281Z,4.10
2023-09-23T19:57:24.085Z,3.70
2023-09-23T19:59:51.108Z,4.13
2023-09-23T20:02:18.082Z,4.65
2023-09-23T20:04:47.684Z,4.18
2023-09-23T20:07:14.909Z,4.03
2023-09-23T20:09:41.902Z,4.53
2023-09-23T20:12:11.854Z,3.97
2023-09-23T20:14:39.126Z,4.07
2023-09-23T20:17:07.889Z,3.97
2023-09-23T20:19:35.171Z,4.40
2023-09-23T20:22:03.283Z,4.25
2023-09-23T20:24:30.190Z,3.90
2023-09-23T20:26:57.143Z,4.00
2023-09-23T20:29:24.521Z,3.15
2023-09-23T20:31:51.712Z,3.35
2023-09-23T20:34:18.615Z,3.58
2023-09-23T20:36:45.626Z,4.00
2023-09-23T20:39:12.995Z,3.35
2023-09-23T20:41:40.065Z,4.10
2023-09-23T20:44:07.345Z,4.43
2023-09-23T20:46:34.428Z,4.93
2023-09-23T20:49:01.780Z,4.55
2023-09-23T20:51:29.332Z,4.60
2023-09-23T20:53:56.777Z,4.83
2023-09-23T20:56:24.224Z,4.95
2023-09-23T20:58:51.183Z,5.53
2023-09-23T21:01:18.234Z,6.00
2023-09-23T21:03:45.561Z,5.32
2023-09-23T21:06:12.572Z,5.70
2023-09-23T21:08:39.526Z,5.82
2023-09-23T21:11:06.375Z,5.30
2023-09-23T21:13:33.215Z,5.15
2023-09-23T21:16:01.707Z,5.82
2023-09-23T21:18:29.330Z,5.10
2023-09-23T21:20:56.249Z,5.75
2023-09-23T21:23:23.957Z,6.65
2023-09-23T21:25:53.625Z,8.15
2023-09-23T21:28:20.917Z,8.60
2023-09-23T21:30:48.207Z,6.55
2023-09-23T21:33:15.531Z,6.83
2023-09-23T21:35:42.765Z,6.50
2023-09-23T21:38:09.740Z,5.72
2023-09-23T21:40:40.900Z,4.78
2023-09-23T21:43:11.050Z,3.72
2023-09-23T21:45:40.201Z,3.80
2023-09-23T21:48:10.748Z,3.70
2023-09-23T21:50:37.941Z,3.70
2023-09-23T21:53:06.665Z,3.97
2023-09-23T21:55:33.552Z,4.40
2023-09-23T21:58:00.490Z,4.00
2023-09-23T22:00:28.184Z,4.32
2023-09-23T22:02:57.552Z,3.50
2023-09-23T22:05:26.317Z,3.60
2023-09-23T22:07:58.744Z,3.88
2023-09-23T22:10:27.543Z,3.92
2023-09-23T22:15:22.132Z,3.63
2023-09-23T22:17:52.108Z,3.95
2023-09-23T22:20:21.536Z,4.03
2023-09-23T22:22:49.642Z,3.95
2023-09-23T22:25:21.502Z,4.25
2023-09-23T22:27:49.474Z,4.20
2023-09-23T22:30:18.701Z,4.07
2023-09-23T22:32:48.479Z,4.50
2023-09-23T22:35:16.250Z,4.38
2023-09-23T22:37:43.255Z,4.32
2023-09-23T22:40:15.252Z,5.20
2023-09-23T22:42:42.862Z,4.25
2023-09-23T22:45:17.646Z,4.75
2023-09-23T22:47:51.963Z,4.22
2023-09-23T22:50:24.088Z,4.35
2023-09-23T22:52:51.427Z,4.40
2023-09-23T22:55:18.230Z,4.67
2023-09-23T22:57:48.660Z,5.00
2023-09-23T23:00:17.510Z,4.28
2023-09-23T23:02:47.379Z,4.30
2023-09-23T23:05:17.888Z,4.85
2023-09-23T23:07:56.012Z,4.35
2023-09-23T23:12:49.752Z,4.45
2023-09-23T23:15:18.989Z,4.40
2023-09-23T23:17:47.154Z,4.10
2023-09-23T23:20:16.171Z,4.70
2023-09-23T23:22:43.153Z,4.30
2023-09-23T23:25:13.076Z,4.57
2023-09-23T23:27:42.207Z,3.92
2023-09-23T23:30:10.364Z,3.75
2023-09-23T23:32:37.190Z,3.20
2023-09-23T23:35:04.753Z,3.30
2023-09-23T23:37:36.641Z,3.08
2023-09-23T23:40:07.734Z,3.13
2023-09-23T23:42:35.207Z,3.25
2023-09-23T23:45:02.389Z,3.00
2023-09-23T23:47:29.655Z,2.80
2023-09-23T23:49:56.732Z,2.70
2023-09-23T23:52:25.055Z,2.88
2023-09-23T23:57:18.739Z,3.35
2023-09-23T23:59:48.021Z,3.10
